BGSF Airport Information

Runway Information
Runway 09 Length 9219 ft width 197 ft
Elevation 100 ft Threshold 0 ft Heading 62
Runway 27 Length 9219 ft Width 197 ft
Elevation 165 ft Threshold 0 ft Heading 242
Airport Frequencies
Type A/D Name APP/DEP Frequency 126.2 MHZ
Type RDO Name RDO Frequency 121.3 MHZ
Type TWR Name TWR Frequency 118.3 MHZ
Airport Navaids
Type NDB Name Sondre Stromfjord Frequency 382 KHZ
Airport Weather Information & NOTAM
ADDS - METARS form results

(0714 UTC 23 October 2021)
Data provider http://aviationweather.gov/metar/data/
 
METAR text: BGSF 230650Z AUTO 06010KT 9999NDV BKN049/// OVC090/// M09/M16 Q1006
Conditions at: BGSF (SONDRE STROMFJOR, GL) observed 0650 UTC 23 October 2021
Temperature: -9.0°C (16°F)
Dewpoint: -16.0°C ( 3°F) [RH = 57%]
Pressure (altimeter): 29.70 inches Hg (1006.0 mb)
Winds: from the ENE (60 degrees) at 12 MPH (10 knots; 5.1 m/s)
Visibility: missing
Ceiling: 4900 feet AGL
Clouds: broken clouds at 4900 feet AGL
overcast cloud deck at 9000 feet AGL
Weather: no significant weather observed at this time